sensor_id;sensor_type;location;lat;lon;timestamp;P1;durP1;ratioP1;P2;durP2;ratioP2
46000;SDS011;72226;48.272;11.180;2024-01-06T00:01:13;9.85;;;8.23;;
46000;SDS011;72226;48.272;11.180;2024-01-06T00:03:40;8.98;;;7.07;;
46000;SDS011;72226;48.272;11.180;2024-01-06T00:06:05;7.95;;;5.95;;
46000;SDS011;72226;48.272;11.180;2024-01-06T00:08:30;6.43;;;5.82;;
46000;SDS011;72226;48.272;11.180;2024-01-06T00:10:55;12.75;;;8.80;;
46000;SDS011;72226;48.272;11.180;2024-01-06T00:13:21;10.55;;;7.72;;
46000;SDS011;72226;48.272;11.180;2024-01-06T00:15:46;9.75;;;7.72;;
46000;SDS011;72226;48.272;11.180;2024-01-06T00:18:11;8.18;;;7.18;;
46000;SDS011;72226;48.272;11.180;2024-01-06T00:20:36;7.68;;;6.32;;
46000;SDS011;72226;48.272;11.180;2024-01-06T00:23:02;9.48;;;6.38;;
46000;SDS011;72226;48.272;11.180;2024-01-06T00:25:27;6.47;;;5.50;;
46000;SDS011;72226;48.272;11.180;2024-01-06T00:27:52;7.28;;;6.32;;
46000;SDS011;72226;48.272;11.180;2024-01-06T00:30:17;5.72;;;5.10;;
46000;SDS011;72226;48.272;11.180;2024-01-06T00:32:43;7.03;;;6.30;;
46000;SDS011;72226;48.272;11.180;2024-01-06T00:35:08;6.32;;;5.28;;
46000;SDS011;72226;48.272;11.180;2024-01-06T00:37:33;5.68;;;5.18;;
46000;SDS011;72226;48.272;11.180;2024-01-06T00:39:59;6.22;;;5.72;;
46000;SDS011;72226;48.272;11.180;2024-01-06T00:42:24;6.95;;;5.90;;
46000;SDS011;72226;48.272;11.180;2024-01-06T00:44:49;6.30;;;5.70;;
46000;SDS011;72226;48.272;11.180;2024-01-06T00:47:15;6.95;;;6.25;;
46000;SDS011;72226;48.272;11.180;2024-01-06T00:49:40;9.88;;;8.80;;
46000;SDS011;72226;48.272;11.180;2024-01-06T00:52:05;7.68;;;6.72;;
46000;SDS011;72226;48.272;11.180;2024-01-06T00:54:30;6.75;;;6.13;;
46000;SDS011;72226;48.272;11.180;2024-01-06T00:56:56;6.40;;;5.60;;
46000;SDS011;72226;48.272;11.180;2024-01-06T00:59:21;6.75;;;6.07;;
46000;SDS011;72226;48.272;11.180;2024-01-06T01:01:46;7.65;;;6.80;;
46000;SDS011;72226;48.272;11.180;2024-01-06T01:04:11;7.43;;;6.80;;
46000;SDS011;72226;48.272;11.180;2024-01-06T01:06:37;6.75;;;6.15;;
46000;SDS011;72226;48.272;11.180;2024-01-06T01:09:02;7.38;;;6.68;;
46000;SDS011;72226;48.272;11.180;2024-01-06T01:11:27;7.20;;;6.47;;
46000;SDS011;72226;48.272;11.180;2024-01-06T01:13:53;7.43;;;6.72;;
46000;SDS011;72226;48.272;11.180;2024-01-06T01:16:18;7.70;;;7.00;;
46000;SDS011;72226;48.272;11.180;2024-01-06T01:18:43;8.02;;;7.05;;
46000;SDS011;72226;48.272;11.180;2024-01-06T01:21:08;7.35;;;6.47;;
46000;SDS011;72226;48.272;11.180;2024-01-06T01:23:34;8.00;;;6.88;;
46000;SDS011;72226;48.272;11.180;2024-01-06T01:25:59;6.47;;;5.88;;
46000;SDS011;72226;48.272;11.180;2024-01-06T01:28:24;8.27;;;7.57;;
46000;SDS011;72226;48.272;11.180;2024-01-06T01:30:49;7.82;;;7.07;;
46000;SDS011;72226;48.272;11.180;2024-01-06T01:33:15;8.93;;;6.88;;
46000;SDS011;72226;48.272;11.180;2024-01-06T01:35:40;7.75;;;6.95;;
46000;SDS011;72226;48.272;11.180;2024-01-06T01:38:06;9.18;;;6.75;;
46000;SDS011;72226;48.272;11.180;2024-01-06T01:40:31;8.52;;;7.35;;
46000;SDS011;72226;48.272;11.180;2024-01-06T01:42:57;7.40;;;6.72;;
46000;SDS011;72226;48.272;11.180;2024-01-06T01:45:22;7.85;;;7.15;;
46000;SDS011;72226;48.272;11.180;2024-01-06T01:47:47;7.47;;;6.88;;
46000;SDS011;72226;48.272;11.180;2024-01-06T01:50:12;7.32;;;6.72;;
46000;SDS011;72226;48.272;11.180;2024-01-06T01:52:39;7.28;;;6.57;;
46000;SDS011;72226;48.272;11.180;2024-01-06T01:55:05;7.47;;;6.75;;
46000;SDS011;72226;48.272;11.180;2024-01-06T01:57:31;6.50;;;5.90;;
46000;SDS011;72226;48.272;11.180;2024-01-06T01:59:56;8.30;;;7.47;;
46000;SDS011;72226;48.272;11.180;2024-01-06T02:02:21;7.80;;;7.00;;
46000;SDS011;72226;48.272;11.180;2024-01-06T02:04:47;7.53;;;6.80;;
46000;SDS011;72226;48.272;11.180;2024-01-06T02:07:13;7.45;;;6.75;;
46000;SDS011;72226;48.272;11.180;2024-01-06T02:09:38;7.22;;;6.53;;
46000;SDS011;72226;48.272;11.180;2024-01-06T02:12:03;7.53;;;6.80;;
46000;SDS011;72226;48.272;11.180;2024-01-06T02:14:28;7.38;;;6.68;;
46000;SDS011;72226;48.272;11.180;2024-01-06T02:16:54;7.00;;;6.03;;
46000;SDS011;72226;48.272;11.180;2024-01-06T02:19:19;6.07;;;5.47;;
46000;SDS011;72226;48.272;11.180;2024-01-06T02:21:48;7.07;;;6.45;;
46000;SDS011;72226;48.272;11.180;2024-01-06T02:24:13;8.18;;;6.32;;
46000;SDS011;72226;48.272;11.180;2024-01-06T02:26:38;8.38;;;6.70;;
46000;SDS011;72226;48.272;11.180;2024-01-06T02:29:03;8.27;;;7.10;;
46000;SDS011;72226;48.272;11.180;2024-01-06T02:31:29;8.30;;;7.38;;
46000;SDS011;72226;48.272;11.180;2024-01-06T02:33:54;8.05;;;7.22;;
46000;SDS011;72226;48.272;11.180;2024-01-06T02:36:19;7.90;;;7.10;;
46000;SDS011;72226;48.272;11.180;2024-01-06T02:38:44;8.75;;;7.95;;
46000;SDS011;72226;48.272;11.180;2024-01-06T02:41:10;8.23;;;7.35;;
46000;SDS011;72226;48.272;11.180;2024-01-06T02:43:35;7.88;;;7.18;;
46000;SDS011;72226;48.272;11.180;2024-01-06T02:46:00;8.10;;;7.30;;
46000;SDS011;72226;48.272;11.180;2024-01-06T02:48:25;8.88;;;8.05;;
46000;SDS011;72226;48.272;11.180;2024-01-06T02:50:51;9.55;;;8.55;;
46000;SDS011;72226;48.272;11.180;2024-01-06T02:53:16;8.90;;;8.05;;
46000;SDS011;72226;48.272;11.180;2024-01-06T02:55:41;9.10;;;7.72;;
46000;SDS011;72226;48.272;11.180;2024-01-06T02:58:06;8.05;;;7.25;;
46000;SDS011;72226;48.272;11.180;2024-01-06T03:00:32;7.43;;;6.78;;
46000;SDS011;72226;48.272;11.180;2024-01-06T03:02:57;7.43;;;6.72;;
46000;SDS011;72226;48.272;11.180;2024-01-06T03:05:22;6.57;;;5.88;;
46000;SDS011;72226;48.272;11.180;2024-01-06T03:07:47;5.40;;;4.90;;
46000;SDS011;72226;48.272;11.180;2024-01-06T03:10:12;5.68;;;4.95;;
46000;SDS011;72226;48.272;11.180;2024-01-06T03:12:38;5.53;;;4.88;;
46000;SDS011;72226;48.272;11.180;2024-01-06T03:15:03;5.22;;;4.75;;
46000;SDS011;72226;48.272;11.180;2024-01-06T03:17:28;3.90;;;3.50;;
46000;SDS011;72226;48.272;11.180;2024-01-06T03:19:54;5.05;;;4.07;;
46000;SDS011;72226;48.272;11.180;2024-01-06T03:22:19;4.80;;;4.30;;
46000;SDS011;72226;48.272;11.180;2024-01-06T03:24:44;4.78;;;3.38;;
46000;SDS011;72226;48.272;11.180;2024-01-06T03:27:09;4.45;;;3.88;;
46000;SDS011;72226;48.272;11.180;2024-01-06T03:29:35;3.42;;;3.13;;
46000;SDS011;72226;48.272;11.180;2024-01-06T03:32:00;3.42;;;3.13;;
46000;SDS011;72226;48.272;11.180;2024-01-06T03:34:25;4.10;;;3.05;;
46000;SDS011;72226;48.272;11.180;2024-01-06T03:36:50;3.40;;;2.72;;
46000;SDS011;72226;48.272;11.180;2024-01-06T03:39:16;3.42;;;2.55;;
46000;SDS011;72226;48.272;11.180;2024-01-06T03:41:41;4.28;;;3.50;;
46000;SDS011;72226;48.272;11.180;2024-01-06T03:44:06;5.63;;;4.18;;
46000;SDS011;72226;48.272;11.180;2024-01-06T03:46:32;6.35;;;4.45;;
46000;SDS011;72226;48.272;11.180;2024-01-06T03:48:58;6.85;;;4.53;;
46000;SDS011;72226;48.272;11.180;2024-01-06T03:51:23;4.00;;;3.53;;
46000;SDS011;72226;48.272;11.180;2024-01-06T03:53:48;4.60;;;3.13;;
46000;SDS011;72226;48.272;11.180;2024-01-06T03:56:13;3.13;;;2.83;;
46000;SDS011;72226;48.272;11.180;2024-01-06T03:58:38;3.33;;;3.03;;
46000;SDS011;72226;48.272;11.180;2024-01-06T04:01:04;3.55;;;2.63;;
46000;SDS011;72226;48.272;11.180;2024-01-06T04:03:29;2.60;;;1.95;;
46000;SDS011;72226;48.272;11.180;2024-01-06T04:05:54;1.58;;;1.42;;
46000;SDS011;72226;48.272;11.180;2024-01-06T04:08:19;1.48;;;1.38;;
46000;SDS011;72226;48.272;11.180;2024-01-06T04:10:45;1.20;;;1.05;;
46000;SDS011;72226;48.272;11.180;2024-01-06T04:13:10;3.42;;;1.58;;
46000;SDS011;72226;48.272;11.180;2024-01-06T04:15:36;2.13;;;1.63;;
46000;SDS011;72226;48.272;11.180;2024-01-06T04:18:02;1.17;;;0.80;;
46000;SDS011;72226;48.272;11.180;2024-01-06T04:20:28;0.93;;;0.70;;
46000;SDS011;72226;48.272;11.180;2024-01-06T04:22:53;0.73;;;0.52;;
46000;SDS011;72226;48.272;11.180;2024-01-06T04:25:19;0.45;;;0.30;;
46000;SDS011;72226;48.272;11.180;2024-01-06T04:27:44;2.05;;;0.40;;
46000;SDS011;72226;48.272;11.180;2024-01-06T04:30:11;0.75;;;0.60;;
46000;SDS011;72226;48.272;11.180;2024-01-06T04:32:36;0.50;;;0.20;;
46000;SDS011;72226;48.272;11.180;2024-01-06T04:35:02;2.20;;;0.28;;
46000;SDS011;72226;48.272;11.180;2024-01-06T04:37:28;0.38;;;0.30;;
46000;SDS011;72226;48.272;11.180;2024-01-06T04:39:53;0.20;;;0.20;;
46000;SDS011;72226;48.272;11.180;2024-01-06T04:42:18;0.20;;;0.20;;
46000;SDS011;72226;48.272;11.180;2024-01-06T04:44:44;0.15;;;0.13;;
46000;SDS011;72226;48.272;11.180;2024-01-06T04:47:10;0.30;;;0.10;;
46000;SDS011;72226;48.272;11.180;2024-01-06T04:49:35;0.10;;;0.10;;
46000;SDS011;72226;48.272;11.180;2024-01-06T04:52:00;0.30;;;0.20;;
46000;SDS011;72226;48.272;11.180;2024-01-06T04:54:25;0.43;;;0.28;;
46000;SDS011;72226;48.272;11.180;2024-01-06T04:56:50;1.15;;;0.73;;
46000;SDS011;72226;48.272;11.180;2024-01-06T04:59:16;0.98;;;0.68;;
46000;SDS011;72226;48.272;11.180;2024-01-06T05:01:41;1.25;;;0.63;;
46000;SDS011;72226;48.272;11.180;2024-01-06T05:04:06;1.10;;;0.73;;
46000;SDS011;72226;48.272;11.180;2024-01-06T05:06:31;1.75;;;1.38;;
46000;SDS011;72226;48.272;11.180;2024-01-06T05:08:57;5.15;;;2.00;;
46000;SDS011;72226;48.272;11.180;2024-01-06T05:11:22;5.15;;;3.33;;
46000;SDS011;72226;48.272;11.180;2024-01-06T05:13:47;5.55;;;2.60;;
46000;SDS011;72226;48.272;11.180;2024-01-06T05:16:12;2.45;;;2.25;;
46000;SDS011;72226;48.272;11.180;2024-01-06T05:18:37;2.33;;;1.75;;
46000;SDS011;72226;48.272;11.180;2024-01-06T05:21:03;5.07;;;2.55;;
46000;SDS011;72226;48.272;11.180;2024-01-06T05:23:28;3.80;;;1.95;;
46000;SDS011;72226;48.272;11.180;2024-01-06T05:25:54;3.60;;;1.27;;
46000;SDS011;72226;48.272;11.180;2024-01-06T05:28:19;2.15;;;1.42;;
46000;SDS011;72226;48.272;11.180;2024-01-06T05:30:44;1.33;;;1.23;;
46000;SDS011;72226;48.272;11.180;2024-01-06T05:33:10;1.27;;;0.90;;
46000;SDS011;72226;48.272;11.180;2024-01-06T05:35:35;2.25;;;1.17;;
46000;SDS011;72226;48.272;11.180;2024-01-06T05:38:00;6.47;;;1.70;;
46000;SDS011;72226;48.272;11.180;2024-01-06T05:40:26;17.15;;;14.55;;
46000;SDS011;72226;48.272;11.180;2024-01-06T05:42:51;14.18;;;11.35;;
46000;SDS011;72226;48.272;11.180;2024-01-06T05:45:20;8.13;;;5.78;;
46000;SDS011;72226;48.272;11.180;2024-01-06T05:47:45;7.03;;;4.32;;
46000;SDS011;72226;48.272;11.180;2024-01-06T05:50:11;3.72;;;2.25;;
46000;SDS011;72226;48.272;11.180;2024-01-06T05:52:36;3.17;;;2.13;;
46000;SDS011;72226;48.272;11.180;2024-01-06T05:55:01;3.13;;;1.77;;
46000;SDS011;72226;48.272;11.180;2024-01-06T05:57:26;4.03;;;1.92;;
46000;SDS011;72226;48.272;11.180;2024-01-06T05:59:51;2.22;;;1.52;;
46000;SDS011;72226;48.272;11.180;2024-01-06T06:02:17;3.08;;;1.67;;
46000;SDS011;72226;48.272;11.180;2024-01-06T06:04:45;2.95;;;1.63;;
46000;SDS011;72226;48.272;11.180;2024-01-06T06:07:10;4.93;;;2.25;;
46000;SDS011;72226;48.272;11.180;2024-01-06T06:09:35;3.28;;;2.20;;
46000;SDS011;72226;48.272;11.180;2024-01-06T06:12:02;3.85;;;2.08;;
46000;SDS011;72226;48.272;11.180;2024-01-06T06:14:28;5.63;;;2.22;;
46000;SDS011;72226;48.272;11.180;2024-01-06T06:16:53;4.60;;;1.45;;
46000;SDS011;72226;48.272;11.180;2024-01-06T06:19:18;2.30;;;2.10;;
46000;SDS011;72226;48.272;11.180;2024-01-06T06:21:44;5.07;;;2.88;;
46000;SDS011;72226;48.272;11.180;2024-01-06T06:24:09;2.88;;;1.42;;
46000;SDS011;72226;48.272;11.180;2024-01-06T06:26:34;3.42;;;2.53;;
46000;SDS011;72226;48.272;11.180;2024-01-06T06:29:00;3.75;;;2.58;;
46000;SDS011;72226;48.272;11.180;2024-01-06T06:31:26;3.35;;;2.10;;
46000;SDS011;72226;48.272;11.180;2024-01-06T06:33:51;2.78;;;2.03;;
46000;SDS011;72226;48.272;11.180;2024-01-06T06:36:16;4.28;;;1.83;;
46000;SDS011;72226;48.272;11.180;2024-01-06T06:38:42;2.83;;;1.67;;
46000;SDS011;72226;48.272;11.180;2024-01-06T06:41:07;3.33;;;1.80;;
46000;SDS011;72226;48.272;11.180;2024-01-06T06:43:32;4.10;;;2.08;;
46000;SDS011;72226;48.272;11.180;2024-01-06T06:45:57;5.38;;;3.80;;
46000;SDS011;72226;48.272;11.180;2024-01-06T06:48:23;5.15;;;4.18;;
46000;SDS011;72226;48.272;11.180;2024-01-06T06:50:48;6.35;;;2.83;;
46000;SDS011;72226;48.272;11.180;2024-01-06T06:53:13;2.85;;;2.30;;
46000;SDS011;72226;48.272;11.180;2024-01-06T06:55:38;2.92;;;1.52;;
46000;SDS011;72226;48.272;11.180;2024-01-06T06:58:05;3.38;;;2.45;;
46000;SDS011;72226;48.272;11.180;2024-01-06T07:00:31;2.22;;;1.77;;
46000;SDS011;72226;48.272;11.180;2024-01-06T07:02:56;3.35;;;1.65;;
46000;SDS011;72226;48.272;11.180;2024-01-06T07:05:22;5.72;;;2.33;;
46000;SDS011;72226;48.272;11.180;2024-01-06T07:07:47;4.85;;;1.90;;
46000;SDS011;72226;48.272;11.180;2024-01-06T07:10:13;5.03;;;2.03;;
46000;SDS011;72226;48.272;11.180;2024-01-06T07:12:38;5.65;;;2.35;;
46000;SDS011;72226;48.272;11.180;2024-01-06T07:15:03;2.67;;;2.03;;
46000;SDS011;72226;48.272;11.180;2024-01-06T07:17:29;3.75;;;2.10;;
46000;SDS011;72226;48.272;11.180;2024-01-06T07:19:54;5.53;;;2.47;;
46000;SDS011;72226;48.272;11.180;2024-01-06T07:22:19;3.15;;;1.92;;
46000;SDS011;72226;48.272;11.180;2024-01-06T07:24:44;4.43;;;1.67;;
46000;SDS011;72226;48.272;11.180;2024-01-06T07:27:10;3.53;;;2.17;;
46000;SDS011;72226;48.272;11.180;2024-01-06T07:29:35;2.17;;;1.95;;
46000;SDS011;72226;48.272;11.180;2024-01-06T07:32:01;3.05;;;1.90;;
46000;SDS011;72226;48.272;11.180;2024-01-06T07:34:27;3.60;;;2.25;;
46000;SDS011;72226;48.272;11.180;2024-01-06T07:36:52;3.38;;;1.83;;
46000;SDS011;72226;48.272;11.180;2024-01-06T07:39:18;3.50;;;2.45;;
46000;SDS011;72226;48.272;11.180;2024-01-06T07:41:43;6.30;;;2.70;;
46000;SDS011;72226;48.272;11.180;2024-01-06T07:44:08;3.58;;;2.83;;
46000;SDS011;72226;48.272;11.180;2024-01-06T07:46:33;5.13;;;2.72;;
46000;SDS011;72226;48.272;11.180;2024-01-06T07:49:00;5.88;;;2.85;;
46000;SDS011;72226;48.272;11.180;2024-01-06T07:51:25;3.45;;;2.85;;
46000;SDS011;72226;48.272;11.180;2024-01-06T07:53:50;5.93;;;2.45;;
46000;SDS011;72226;48.272;11.180;2024-01-06T07:56:16;5.03;;;1.92;;
46000;SDS011;72226;48.272;11.180;2024-01-06T07:58:41;4.60;;;2.25;;
46000;SDS011;72226;48.272;11.180;2024-01-06T08:01:06;7.03;;;2.83;;
46000;SDS011;72226;48.272;11.180;2024-01-06T08:03:31;3.92;;;2.42;;
46000;SDS011;72226;48.272;11.180;2024-01-06T08:05:56;4.97;;;2.63;;
46000;SDS011;72226;48.272;11.180;2024-01-06T08:08:22;2.30;;;1.83;;
46000;SDS011;72226;48.272;11.180;2024-01-06T08:10:47;4.68;;;2.30;;
46000;SDS011;72226;48.272;11.180;2024-01-06T08:13:14;4.63;;;2.75;;
46000;SDS011;72226;48.272;11.180;2024-01-06T08:15:39;2.72;;;2.22;;
46000;SDS011;72226;48.272;11.180;2024-01-06T08:18:05;2.22;;;1.42;;
46000;SDS011;72226;48.272;11.180;2024-01-06T08:20:30;4.07;;;1.75;;
46000;SDS011;72226;48.272;11.180;2024-01-06T08:22:55;2.03;;;1.75;;
46000;SDS011;72226;48.272;11.180;2024-01-06T08:25:21;2.72;;;2.15;;
46000;SDS011;72226;48.272;11.180;2024-01-06T08:27:46;3.65;;;2.05;;
46000;SDS011;72226;48.272;11.180;2024-01-06T08:30:11;3.97;;;2.05;;
46000;SDS011;72226;48.272;11.180;2024-01-06T08:32:37;2.58;;;2.00;;
46000;SDS011;72226;48.272;11.180;2024-01-06T08:35:02;3.33;;;2.22;;
46000;SDS011;72226;48.272;11.180;2024-01-06T08:37:28;3.80;;;1.60;;
46000;SDS011;72226;48.272;11.180;2024-01-06T08:39:54;4.28;;;2.20;;
46000;SDS011;72226;48.272;11.180;2024-01-06T08:42:19;6.18;;;2.58;;
46000;SDS011;72226;48.272;11.180;2024-01-06T08:44:44;3.60;;;2.10;;
46000;SDS011;72226;48.272;11.180;2024-01-06T08:47:09;3.60;;;2.90;;
46000;SDS011;72226;48.272;11.180;2024-01-06T08:49:35;5.75;;;2.63;;
46000;SDS011;72226;48.272;11.180;2024-01-06T08:52:00;2.97;;;2.15;;
46000;SDS011;72226;48.272;11.180;2024-01-06T08:54:25;6.80;;;3.38;;
46000;SDS011;72226;48.272;11.180;2024-01-06T08:56:50;9.48;;;2.50;;
46000;SDS011;72226;48.272;11.180;2024-01-06T08:59:16;2.20;;;1.90;;
46000;SDS011;72226;48.272;11.180;2024-01-06T09:01:41;5.57;;;2.47;;
46000;SDS011;72226;48.272;11.180;2024-01-06T09:04:07;4.30;;;2.67;;
46000;SDS011;72226;48.272;11.180;2024-01-06T09:06:32;4.32;;;3.03;;
46000;SDS011;72226;48.272;11.180;2024-01-06T09:08:57;4.55;;;2.40;;
46000;SDS011;72226;48.272;11.180;2024-01-06T09:11:23;7.13;;;3.35;;
46000;SDS011;72226;48.272;11.180;2024-01-06T09:13:48;4.47;;;3.05;;
46000;SDS011;72226;48.272;11.180;2024-01-06T09:16:14;5.22;;;3.47;;
46000;SDS011;72226;48.272;11.180;2024-01-06T09:18:39;13.88;;;3.15;;
46000;SDS011;72226;48.272;11.180;2024-01-06T09:21:04;4.03;;;3.20;;
46000;SDS011;72226;48.272;11.180;2024-01-06T09:23:30;6.38;;;4.43;;
46000;SDS011;72226;48.272;11.180;2024-01-06T09:25:57;6.20;;;4.13;;
46000;SDS011;72226;48.272;11.180;2024-01-06T09:28:22;5.68;;;3.20;;
46000;SDS011;72226;48.272;11.180;2024-01-06T09:30:47;11.32;;;3.50;;
46000;SDS011;72226;48.272;11.180;2024-01-06T09:33:12;11.18;;;3.85;;
46000;SDS011;72226;48.272;11.180;2024-01-06T09:35:40;9.50;;;3.40;;
46000;SDS011;72226;48.272;11.180;2024-01-06T09:38:06;8.63;;;4.47;;
46000;SDS011;72226;48.272;11.180;2024-01-06T09:40:32;6.95;;;3.50;;
46000;SDS011;72226;48.272;11.180;2024-01-06T09:42:58;8.63;;;4.00;;
46000;SDS011;72226;48.272;11.180;2024-01-06T09:45:24;8.38;;;4.25;;
46000;SDS011;72226;48.272;11.180;2024-01-06T09:47:49;4.85;;;3.92;;
46000;SDS011;72226;48.272;11.180;2024-01-06T09:50:17;8.88;;;4.15;;
46000;SDS011;72226;48.272;11.180;2024-01-06T09:52:45;6.55;;;4.10;;
46000;SDS011;72226;48.272;11.180;2024-01-06T09:55:14;9.50;;;3.63;;
46000;SDS011;72226;48.272;11.180;2024-01-06T09:57:40;6.93;;;4.38;;
46000;SDS011;72226;48.272;11.180;2024-01-06T10:00:05;4.60;;;3.13;;
46000;SDS011;72226;48.272;11.180;2024-01-06T10:02:33;4.35;;;2.83;;
46000;SDS011;72226;48.272;11.180;2024-01-06T10:04:58;5.55;;;3.10;;
46000;SDS011;72226;48.272;11.180;2024-01-06T10:07:25;5.40;;;3.35;;
46000;SDS011;72226;48.272;11.180;2024-01-06T10:09:51;9.48;;;4.50;;
46000;SDS011;72226;48.272;11.180;2024-01-06T10:12:22;11.70;;;5.50;;
46000;SDS011;72226;48.272;11.180;2024-01-06T10:14:47;6.15;;;4.93;;
46000;SDS011;72226;48.272;11.180;2024-01-06T10:17:13;7.22;;;3.78;;
46000;SDS011;72226;48.272;11.180;2024-01-06T10:19:39;5.63;;;2.80;;
46000;SDS011;72226;48.272;11.180;2024-01-06T10:22:04;7.80;;;3.78;;
46000;SDS011;72226;48.272;11.180;2024-01-06T10:24:30;4.57;;;3.10;;
46000;SDS011;72226;48.272;11.180;2024-01-06T10:26:56;5.45;;;3.28;;
46000;SDS011;72226;48.272;11.180;2024-01-06T10:29:21;4.03;;;2.78;;
46000;SDS011;72226;48.272;11.180;2024-01-06T10:31:47;4.05;;;2.70;;
46000;SDS011;72226;48.272;11.180;2024-01-06T10:34:12;7.78;;;2.90;;
46000;SDS011;72226;48.272;11.180;2024-01-06T10:36:39;6.38;;;2.85;;
46000;SDS011;72226;48.272;11.180;2024-01-06T10:39:04;4.47;;;3.17;;
46000;SDS011;72226;48.272;11.180;2024-01-06T10:41:31;7.68;;;3.55;;
46000;SDS011;72226;48.272;11.180;2024-01-06T10:43:57;9.45;;;3.88;;
46000;SDS011;72226;48.272;11.180;2024-01-06T10:46:23;5.90;;;3.58;;
46000;SDS011;72226;48.272;11.180;2024-01-06T10:48:50;7.47;;;4.10;;
46000;SDS011;72226;48.272;11.180;2024-01-06T10:51:17;5.97;;;4.00;;
46000;SDS011;72226;48.272;11.180;2024-01-06T10:53:43;5.28;;;3.38;;
46000;SDS011;72226;48.272;11.180;2024-01-06T10:56:08;5.10;;;3.80;;
46000;SDS011;72226;48.272;11.180;2024-01-06T10:58:35;5.70;;;3.30;;
46000;SDS011;72226;48.272;11.180;2024-01-06T11:01:02;8.23;;;3.80;;
46000;SDS011;72226;48.272;11.180;2024-01-06T11:03:28;6.78;;;3.80;;
46000;SDS011;72226;48.272;11.180;2024-01-06T11:05:54;6.78;;;4.05;;
46000;SDS011;72226;48.272;11.180;2024-01-06T11:08:43;5.72;;;3.33;;
46000;SDS011;72226;48.272;11.180;2024-01-06T11:11:32;4.80;;;3.72;;
46000;SDS011;72226;48.272;11.180;2024-01-06T11:16:59;4.38;;;3.53;;
46000;SDS011;72226;48.272;11.180;2024-01-06T11:24:47;8.40;;;4.57;;
46000;SDS011;72226;48.272;11.180;2024-01-06T11:27:26;5.55;;;4.03;;
46000;SDS011;72226;48.272;11.180;2024-01-06T11:29:53;7.20;;;3.85;;
46000;SDS011;72226;48.272;11.180;2024-01-06T11:32:31;5.65;;;4.45;;
46000;SDS011;72226;48.272;11.180;2024-01-06T11:35:07;6.13;;;4.45;;
46000;SDS011;72226;48.272;11.180;2024-01-06T11:37:50;5.47;;;3.95;;
46000;SDS011;72226;48.272;11.180;2024-01-06T11:42:56;8.25;;;4.53;;
46000;SDS011;72226;48.272;11.180;2024-01-06T11:47:47;5.10;;;4.00;;
46000;SDS011;72226;48.272;11.180;2024-01-06T11:50:12;11.80;;;5.07;;
46000;SDS011;72226;48.272;11.180;2024-01-06T11:52:37;11.32;;;4.85;;
46000;SDS011;72226;48.272;11.180;2024-01-06T11:55:03;8.20;;;4.25;;
46000;SDS011;72226;48.272;11.180;2024-01-06T11:57:29;8.15;;;4.50;;
46000;SDS011;72226;48.272;11.180;2024-01-06T11:59:54;7.45;;;4.90;;
46000;SDS011;72226;48.272;11.180;2024-01-06T12:02:20;7.18;;;4.15;;
46000;SDS011;72226;48.272;11.180;2024-01-06T12:04:53;7.95;;;5.47;;
46000;SDS011;72226;48.272;11.180;2024-01-06T12:07:20;7.57;;;4.97;;
46000;SDS011;72226;48.272;11.180;2024-01-06T12:09:47;7.43;;;4.65;;
46000;SDS011;72226;48.272;11.180;2024-01-06T12:12:15;7.20;;;4.07;;
46000;SDS011;72226;48.272;11.180;2024-01-06T12:14:41;7.90;;;4.47;;
46000;SDS011;72226;48.272;11.180;2024-01-06T12:17:07;7.05;;;3.97;;
46000;SDS011;72226;48.272;11.180;2024-01-06T12:19:33;8.98;;;4.35;;
46000;SDS011;72226;48.272;11.180;2024-01-06T12:21:58;4.28;;;3.10;;
46000;SDS011;72226;48.272;11.180;2024-01-06T12:24:23;5.70;;;3.58;;
46000;SDS011;72226;48.272;11.180;2024-01-06T12:26:49;6.28;;;4.47;;
46000;SDS011;72226;48.272;11.180;2024-01-06T12:29:14;5.50;;;4.45;;
46000;SDS011;72226;48.272;11.180;2024-01-06T12:31:41;9.27;;;4.95;;
46000;SDS011;72226;48.272;11.180;2024-01-06T12:34:07;6.65;;;3.80;;
46000;SDS011;72226;48.272;11.180;2024-01-06T12:36:39;6.00;;;3.25;;
46000;SDS011;72226;48.272;11.180;2024-01-06T12:39:06;8.53;;;3.13;;
46000;SDS011;72226;48.272;11.180;2024-01-06T12:41:35;11.52;;;4.55;;
46000;SDS011;72226;48.272;11.180;2024-01-06T12:44:01;7.07;;;3.40;;
46000;SDS011;72226;48.272;11.180;2024-01-06T12:46:27;3.95;;;2.60;;
46000;SDS011;72226;48.272;11.180;2024-01-06T12:48:52;8.40;;;3.70;;
46000;SDS011;72226;48.272;11.180;2024-01-06T12:51:17;9.27;;;4.40;;
46000;SDS011;72226;48.272;11.180;2024-01-06T12:53:42;4.35;;;3.10;;
46000;SDS011;72226;48.272;11.180;2024-01-06T12:56:08;6.93;;;3.47;;
46000;SDS011;72226;48.272;11.180;2024-01-06T12:58:33;8.07;;;4.32;;
46000;SDS011;72226;48.272;11.180;2024-01-06T13:00:59;4.82;;;3.65;;
46000;SDS011;72226;48.272;11.180;2024-01-06T13:03:24;5.03;;;3.55;;
46000;SDS011;72226;48.272;11.180;2024-01-06T13:05:49;8.40;;;4.45;;
46000;SDS011;72226;48.272;11.180;2024-01-06T13:08:14;8.38;;;4.00;;
46000;SDS011;72226;48.272;11.180;2024-01-06T13:10:40;7.43;;;4.30;;
46000;SDS011;72226;48.272;11.180;2024-01-06T13:13:05;7.63;;;3.90;;
46000;SDS011;72226;48.272;11.180;2024-01-06T13:15:30;3.90;;;3.03;;
46000;SDS011;72226;48.272;11.180;2024-01-06T13:17:55;3.97;;;2.92;;
46000;SDS011;72226;48.272;11.180;2024-01-06T13:20:22;4.00;;;2.08;;
46000;SDS011;72226;48.272;11.180;2024-01-06T13:22:47;7.50;;;4.05;;
46000;SDS011;72226;48.272;11.180;2024-01-06T13:25:12;9.70;;;2.88;;
46000;SDS011;72226;48.272;11.180;2024-01-06T13:27:38;4.93;;;2.92;;
46000;SDS011;72226;48.272;11.180;2024-01-06T13:30:03;9.98;;;2.90;;
46000;SDS011;72226;48.272;11.180;2024-01-06T13:32:28;5.10;;;3.90;;
46000;SDS011;72226;48.272;11.180;2024-01-06T13:34:54;5.85;;;4.22;;
46000;SDS011;72226;48.272;11.180;2024-01-06T13:37:23;5.95;;;3.38;;
46000;SDS011;72226;48.272;11.180;2024-01-06T13:39:48;7.25;;;3.90;;
46000;SDS011;72226;48.272;11.180;2024-01-06T13:42:13;6.57;;;2.97;;
46000;SDS011;72226;48.272;11.180;2024-01-06T13:44:39;4.57;;;3.15;;
46000;SDS011;72226;48.272;11.180;2024-01-06T13:47:04;5.90;;;3.05;;
46000;SDS011;72226;48.272;11.180;2024-01-06T13:49:29;6.30;;;2.53;;
46000;SDS011;72226;48.272;11.180;2024-01-06T13:51:55;8.57;;;3.20;;
46000;SDS011;72226;48.272;11.180;2024-01-06T13:54:20;4.57;;;2.90;;
46000;SDS011;72226;48.272;11.180;2024-01-06T13:56:45;5.47;;;2.97;;
46000;SDS011;72226;48.272;11.180;2024-01-06T13:59:11;7.72;;;3.20;;
46000;SDS011;72226;48.272;11.180;2024-01-06T14:01:36;5.50;;;3.40;;
46000;SDS011;72226;48.272;11.180;2024-01-06T14:04:01;3.13;;;2.60;;
46000;SDS011;72226;48.272;11.180;2024-01-06T14:06:27;4.13;;;3.20;;
46000;SDS011;72226;48.272;11.180;2024-01-06T14:08:55;6.20;;;3.75;;
46000;SDS011;72226;48.272;11.180;2024-01-06T14:11:20;7.78;;;3.63;;
46000;SDS011;72226;48.272;11.180;2024-01-06T14:13:46;4.45;;;3.05;;
46000;SDS011;72226;48.272;11.180;2024-01-06T14:16:18;3.65;;;3.28;;
46000;SDS011;72226;48.272;11.180;2024-01-06T14:18:43;6.97;;;4.50;;
46000;SDS011;72226;48.272;11.180;2024-01-06T14:21:11;4.07;;;3.45;;
46000;SDS011;72226;48.272;11.180;2024-01-06T14:23:39;6.97;;;3.55;;
46000;SDS011;72226;48.272;11.180;2024-01-06T14:26:05;5.15;;;4.18;;
46000;SDS011;72226;48.272;11.180;2024-01-06T14:28:31;5.63;;;3.70;;
46000;SDS011;72226;48.272;11.180;2024-01-06T14:30:56;5.50;;;3.67;;
46000;SDS011;72226;48.272;11.180;2024-01-06T14:33:21;4.40;;;3.50;;
46000;SDS011;72226;48.272;11.180;2024-01-06T14:35:46;7.20;;;3.83;;
46000;SDS011;72226;48.272;11.180;2024-01-06T14:38:12;6.43;;;3.63;;